Time;durP1;ratioP1;P1;durP2;ratioP2;P2;SDS_P1;SDS_P2;PMS_P1;PMS_P2;Temp;Humidity;BMP_temperature;BMP_pressure;BME280_temperature;BME280_humidity;BME280_pressure;Samples;Min_cycle;Max_cycle;Signal;HPM_P1;HPM_P2
2023/12/02 00:01:11;;;;;;;6.55;4.15;;;;;;;24.83;29.79;97993.16;5011218;28;20030;-42
2023/12/02 00:03:36;;;;;;;5.57;3.67;;;;;;;24.83;29.86;97995.19;4990213;28;20507;-43
2023/12/02 00:06:03;;;;;;;6.10;3.92;;;;;;;24.85;29.65;97998.91;4990669;28;20041;-45
2023/12/02 00:08:28;;;;;;;6.25;4.00;;;;;;;24.83;29.77;98003.47;4990833;28;20038;-43
2023/12/02 00:10:53;;;;;;;5.70;3.60;;;;;;;24.83;29.78;98006.97;4992120;28;20036;-42
2023/12/02 00:13:19;;;;;;;5.72;3.88;;;;;;;24.80;29.71;98005.25;4990004;28;20106;-42
2023/12/02 00:15:44;;;;;;;6.18;4.03;;;;;;;24.81;29.73;98001.22;4987908;28;20022;-43
2023/12/02 00:18:09;;;;;;;5.60;3.60;;;;;;;24.80;29.96;98013.53;4987495;28;20048;-42
2023/12/02 00:20:35;;;;;;;5.80;3.80;;;;;;;24.81;29.54;98017.78;4993377;28;20088;-42
2023/12/02 00:23:00;;;;;;;5.88;3.80;;;;;;;24.79;29.82;98014.06;4995828;28;20022;-42
2023/12/02 00:25:25;;;;;;;5.93;3.72;;;;;;;24.80;29.61;98016.28;4986439;28;20076;-42
2023/12/02 00:27:51;;;;;;;5.72;3.58;;;;;;;24.79;29.75;98008.56;4987712;28;20026;-42
2023/12/02 00:30:16;;;;;;;7.18;3.65;;;;;;;24.77;29.76;98006.34;4985506;28;20026;-42
2023/12/02 00:32:41;;;;;;;5.60;3.40;;;;;;;24.79;29.86;98011.31;4995115;28;20022;-44
2023/12/02 00:35:07;;;;;;;6.05;3.50;;;;;;;24.80;29.71;98013.53;4996154;28;20426;-42
2023/12/02 00:37:32;;;;;;;5.45;3.40;;;;;;;24.81;29.71;98015.03;4991394;28;20084;-43
2023/12/02 00:39:58;;;;;;;5.60;3.40;;;;;;;24.80;29.65;98015.56;4993129;28;20034;-42
2023/12/02 00:42:23;;;;;;;5.90;3.70;;;;;;;24.80;29.72;98016.28;4989661;28;20088;-42
2023/12/02 00:44:48;;;;;;;5.43;3.47;;;;;;;24.77;29.67;98027.69;4993867;28;20031;-43
2023/12/02 00:47:14;;;;;;;5.57;3.42;;;;;;;24.76;29.70;98029.69;4997247;28;20034;-42
2023/12/02 00:49:39;;;;;;;5.13;3.05;;;;;;;24.79;29.62;98025.84;4995937;28;20042;-44
2023/12/02 00:52:05;;;;;;;5.90;3.53;;;;;;;24.79;29.50;98020.34;4990675;28;20489;-42
2023/12/02 00:54:33;;;;;;;5.53;3.42;;;;;;;24.77;29.57;98017.38;4989669;28;20056;-44
2023/12/02 00:56:59;;;;;;;5.78;3.40;;;;;;;24.76;29.57;98021.41;4992889;28;20049;-42
2023/12/02 00:59:24;;;;;;;5.50;3.30;;;;;;;24.76;29.55;98018.66;4994838;28;20097;-43
2023/12/02 01:01:50;;;;;;;5.70;3.40;;;;;;;24.76;29.58;98023.44;4994536;28;20492;-43
2023/12/02 01:04:15;;;;;;;5.40;3.40;;;;;;;24.76;29.51;98015.91;4990455;28;20032;-42
2023/12/02 01:06:40;;;;;;;5.55;3.22;;;;;;;24.79;29.46;98016.81;4990559;28;20479;-42
2023/12/02 01:09:06;;;;;;;5.60;3.40;;;;;;;24.76;29.57;98021.41;4992230;28;20026;-42
2023/12/02 01:11:31;;;;;;;5.38;3.13;;;;;;;24.76;29.53;98026.19;4996141;28;20110;-42
2023/12/02 01:13:56;;;;;;;5.65;3.40;;;;;;;24.75;29.52;98030.22;4996241;28;20031;-42
2023/12/02 01:16:22;;;;;;;5.22;3.20;;;;;;;24.75;29.61;98042.00;4993245;28;20466;-43
2023/12/02 01:18:47;;;;;;;5.60;3.55;;;;;;;24.76;29.44;98037.22;4989741;28;20033;-42
2023/12/02 01:21:12;;;;;;;5.50;3.30;;;;;;;24.76;29.41;98042.75;4989440;28;20210;-42
2023/12/02 01:23:38;;;;;;;4.93;3.10;;;;;;;24.73;29.26;98041.78;4997282;28;20026;-42
2023/12/02 01:26:03;;;;;;;4.80;3.00;;;;;;;24.74;29.56;98051.56;4997766;28;20040;-42
2023/12/02 01:28:29;;;;;;;5.20;3.05;;;;;;;24.75;29.44;98057.81;4996085;28;20026;-42
2023/12/02 01:30:54;;;;;;;5.20;3.10;;;;;;;24.75;29.54;98063.34;4988350;28;20030;-43
2023/12/02 01:33:19;;;;;;;4.97;3.08;;;;;;;24.75;29.42;98058.56;4989563;28;20030;-42
2023/12/02 01:35:45;;;;;;;4.65;2.72;;;;;;;24.75;29.57;98066.09;4991592;28;20018;-42
2023/12/02 01:38:10;;;;;;;4.90;3.00;;;;;;;24.74;29.48;98079.16;4996203;28;20363;-43
2023/12/02 01:40:35;;;;;;;4.93;2.85;;;;;;;24.76;29.48;98076.59;4992094;28;20031;-42
2023/12/02 01:43:02;;;;;;;4.80;2.80;;;;;;;24.76;29.37;98076.59;4989007;28;20398;-42
2023/12/02 01:45:27;;;;;;;5.22;3.30;;;;;;;24.76;29.33;98078.63;4989118;28;20018;-42
2023/12/02 01:47:52;;;;;;;5.20;3.10;;;;;;;24.77;29.56;98083.59;4994756;28;20076;-42
2023/12/02 01:50:18;;;;;;;5.10;3.10;;;;;;;24.76;29.38;98084.88;4990649;28;20474;-42
2023/12/02 01:52:44;;;;;;;5.05;2.92;;;;;;;24.75;29.43;98086.16;4993961;28;20030;-41
2023/12/02 01:55:09;;;;;;;5.65;3.20;;;;;;;24.76;29.21;98090.41;4987150;28;20508;-42
2023/12/02 01:57:34;;;;;;;5.00;2.90;;;;;;;24.75;29.24;98094.44;4988963;28;20531;-42
2023/12/02 02:00:00;;;;;;;5.30;3.10;;;;;;;24.76;29.31;98092.41;4994592;28;20034;-42
2023/12/02 02:02:25;;;;;;;5.13;3.00;;;;;;;24.77;29.38;98093.91;4992342;28;20029;-43
2023/12/02 02:04:51;;;;;;;5.20;2.88;;;;;;;24.74;29.24;98101.22;4993487;28;20389;-43
2023/12/02 02:07:17;;;;;;;4.97;2.92;;;;;;;24.73;29.32;98100.47;4989708;28;20037;-43
2023/12/02 02:09:49;;;;;;;5.47;2.97;;;;;;;24.72;29.32;98093.47;4990767;28;20049;-42
2023/12/02 02:12:14;;;;;;;4.90;2.80;;;;;;;24.73;29.33;98096.97;4991221;28;20045;-42
2023/12/02 02:14:40;;;;;;;4.97;2.80;;;;;;;24.72;29.31;98092.72;4992969;28;20026;-43
2023/12/02 02:17:05;;;;;;;5.28;2.97;;;;;;;24.74;29.26;98101.22;4997780;28;20489;-42
2023/12/02 02:19:31;;;;;;;4.97;2.75;;;;;;;24.71;29.31;98103.00;4995317;28;20022;-42
2023/12/02 02:21:56;;;;;;;4.72;2.67;;;;;;;24.73;29.16;98102.50;4990309;28;20026;-42
2023/12/02 02:24:22;;;;;;;5.57;3.10;;;;;;;24.73;29.26;98110.75;4993543;28;20388;-43
2023/12/02 02:26:47;;;;;;;5.18;3.08;;;;;;;24.74;29.00;98112.25;4993148;28;20088;-42
2023/12/02 02:29:12;;;;;;;4.75;2.72;;;;;;;24.75;29.26;98115.75;4996935;28;20054;-42
2023/12/02 02:31:38;;;;;;;4.95;2.90;;;;;;;24.75;29.14;98115.75;4992764;28;20026;-43
2023/12/02 02:34:03;;;;;;;4.93;2.90;;;;;;;24.75;29.05;98116.50;4990642;28;20042;-42
2023/12/02 02:36:28;;;;;;;4.80;2.67;;;;;;;24.72;29.07;98114.78;4991410;28;20021;-42
2023/12/02 02:38:54;;;;;;;5.15;3.00;;;;;;;24.75;29.09;98122.03;4995885;28;20480;-42
2023/12/02 02:41:19;;;;;;;4.78;2.83;;;;;;;24.72;29.07;98125.84;4999507;28;20028;-43
2023/12/02 02:43:45;;;;;;;5.03;2.70;;;;;;;24.71;29.21;98127.84;4997871;28;20027;-42
2023/12/02 02:46:12;;;;;;;5.00;2.85;;;;;;;24.70;29.20;98117.34;4986958;28;20026;-42
2023/12/02 02:48:37;;;;;;;4.88;2.80;;;;;;;24.70;29.02;98117.34;4992300;28;20053;-42
2023/12/02 02:51:03;;;;;;;5.40;2.92;;;;;;;24.70;29.17;98122.84;4990491;28;20103;-43
2023/12/02 02:53:28;;;;;;;4.68;2.75;;;;;;;24.71;29.25;98116.81;4992360;28;20019;-42
2023/12/02 02:55:53;;;;;;;4.80;2.65;;;;;;;24.71;29.01;98121.59;4982864;28;20056;-43
2023/12/02 02:58:19;;;;;;;4.80;2.83;;;;;;;24.68;29.13;98114.34;4982122;28;20080;-43
2023/12/02 03:00:44;;;;;;;5.18;2.72;;;;;;;24.69;28.88;98115.84;4993874;28;20035;-42
2023/12/02 03:03:10;;;;;;;4.93;2.95;;;;;;;24.68;29.14;98114.34;4994537;28;20067;-42
2023/12/02 03:05:35;;;;;;;4.95;2.90;;;;;;;24.69;29.12;98113.84;4991971;28;20470;-42
2023/12/02 03:08:00;;;;;;;4.72;2.75;;;;;;;24.69;28.90;98118.59;4986551;28;20022;-42
2023/12/02 03:10:26;;;;;;;4.35;2.30;;;;;;;24.68;29.06;98111.59;4987272;28;20069;-42
2023/12/02 03:12:51;;;;;;;5.05;2.88;;;;;;;24.68;29.22;98112.34;4988432;28;20379;-43
2023/12/02 03:15:17;;;;;;;5.05;2.83;;;;;;;24.69;28.95;98115.84;4991857;28;20374;-42
2023/12/02 03:17:42;;;;;;;4.35;2.40;;;;;;;24.73;28.98;98127.31;4994977;28;20118;-42
2023/12/02 03:20:08;;;;;;;4.45;2.53;;;;;;;24.72;28.95;98125.84;4991045;28;20095;-43
2023/12/02 03:22:34;;;;;;;4.75;2.70;;;;;;;24.70;28.93;98131.13;4984770;28;20481;-42
2023/12/02 03:25:00;;;;;;;5.53;2.70;;;;;;;24.72;28.86;98125.84;4988796;28;20030;-42
2023/12/02 03:27:25;;;;;;;4.70;2.88;;;;;;;24.75;28.88;98146.09;4990993;28;20023;-43
2023/12/02 03:29:51;;;;;;;4.78;2.67;;;;;;;24.74;29.05;98139.84;4998523;28;20131;-42
2023/12/02 03:32:16;;;;;;;4.70;2.60;;;;;;;24.76;28.97;98142.81;4988991;28;20026;-42
2023/12/02 03:34:41;;;;;;;4.63;2.67;;;;;;;24.76;28.86;98142.81;4986084;28;20030;-43
2023/12/02 03:37:07;;;;;;;4.13;2.47;;;;;;;24.77;28.78;98147.06;4987533;28;20033;-43
2023/12/02 03:39:32;;;;;;;4.28;2.40;;;;;;;24.81;28.72;98155.00;4991749;28;20076;-42
2023/12/02 03:41:58;;;;;;;4.50;2.50;;;;;;;24.81;28.85;98157.78;4994160;28;20121;-43
2023/12/02 03:44:24;;;;;;;4.70;2.45;;;;;;;24.86;28.93;98163.22;4992729;28;20386;-43
2023/12/02 03:46:49;;;;;;;4.90;2.50;;;;;;;24.80;28.95;98159.78;4981732;28;20097;-45
2023/12/02 03:49:14;;;;;;;4.57;2.40;;;;;;;24.83;29.03;98158.00;4985806;28;20029;-44
2023/12/02 03:51:40;;;;;;;4.60;2.58;;;;;;;24.88;28.90;98159.91;4989708;28;20029;-43
2023/12/02 03:54:05;;;;;;;4.30;2.35;;;;;;;24.91;29.00;98167.91;4996406;28;20026;-43
2023/12/02 03:56:30;;;;;;;4.53;2.40;;;;;;;24.92;28.98;98174.16;4991462;28;20026;-43
2023/12/02 03:58:56;;;;;;;4.28;2.22;;;;;;;24.91;28.85;98178.94;4987671;28;20080;-44
2023/12/02 04:01:22;;;;;;;4.80;2.50;;;;;;;24.91;29.00;98178.19;4987744;28;20044;-43
2023/12/02 04:03:47;;;;;;;4.07;2.10;;;;;;;24.91;29.05;98181.69;4996527;28;20052;-42
2023/12/02 04:06:13;;;;;;;4.20;2.30;;;;;;;24.93;28.87;98183.94;4998504;28;20116;-42
2023/12/02 04:08:39;;;;;;;4.32;2.30;;;;;;;24.90;29.07;98184.97;5000276;28;20101;-44
2023/12/02 04:11:05;;;;;;;4.63;2.40;;;;;;;24.89;29.07;98192.50;4994096;28;20033;-43
2023/12/02 04:13:30;;;;;;;4.47;2.33;;;;;;;24.91;29.21;98192.00;4989717;28;20057;-43
2023/12/02 04:15:56;;;;;;;4.43;2.30;;;;;;;24.92;29.06;98205.25;4995693;28;20096;-43
2023/12/02 04:18:21;;;;;;;4.10;2.17;;;;;;;24.93;29.11;98204.00;4993365;28;20034;-42
2023/12/02 04:20:47;;;;;;;4.22;2.30;;;;;;;24.94;29.06;98208.28;4993812;28;20019;-42
2023/12/02 04:23:12;;;;;;;4.03;2.08;;;;;;;24.95;29.18;98209.03;4991899;28;20030;-42
2023/12/02 04:25:38;;;;;;;4.07;2.10;;;;;;;24.98;29.05;98207.97;4989625;28;20022;-42
2023/12/02 04:28:03;;;;;;;4.25;2.38;;;;;;;24.99;29.18;98215.69;4994846;28;20032;-43
2023/12/02 04:30:29;;;;;;;4.10;2.10;;;;;;;25.01;29.14;98213.16;4995133;28;20030;-42
2023/12/02 04:32:54;;;;;;;4.35;2.38;;;;;;;25.02;29.02;98220.16;4994796;28;20034;-44
2023/12/02 04:35:20;;;;;;;4.35;2.28;;;;;;;25.02;29.16;98220.16;4992851;28;20022;-42
2023/12/02 04:37:45;;;;;;;4.20;2.20;;;;;;;25.03;29.08;98227.19;4987799;28;20097;-43
2023/12/02 04:40:11;;;;;;;4.30;2.30;;;;;;;25.04;29.04;98230.69;4990684;28;20093;-42
2023/12/02 04:42:37;;;;;;;4.35;2.33;;;;;;;25.05;29.00;98232.91;4996937;28;20062;-42
2023/12/02 04:45:03;;;;;;;4.03;2.10;;;;;;;25.04;29.12;98236.94;4994578;28;20018;-43
2023/12/02 04:47:29;;;;;;;4.55;2.33;;;;;;;25.04;29.33;98239.72;4991566;28;20515;-42
2023/12/02 04:49:54;;;;;;;3.85;2.00;;;;;;;25.06;29.14;98247.47;4991546;28;20034;-43
2023/12/02 04:52:19;;;;;;;4.30;2.30;;;;;;;25.05;29.07;98245.97;4992390;28;20034;-42
2023/12/02 04:54:45;;;;;;;4.20;2.30;;;;;;;25.03;29.25;98243.75;4992660;28;20022;-43
2023/12/02 04:57:10;;;;;;;4.13;2.00;;;;;;;25.05;29.19;98245.97;4999759;28;20433;-42
2023/12/02 04:59:35;;;;;;;4.15;2.10;;;;;;;25.10;29.17;98261.72;4993879;28;20094;-43
2023/12/02 05:02:01;;;;;;;4.05;2.03;;;;;;;25.12;28.95;98261.19;4992510;28;20018;-42
2023/12/02 05:04:26;;;;;;;4.20;2.20;;;;;;;25.11;29.07;98256.94;4993005;28;20429;-43
2023/12/02 05:06:52;;;;;;;4.00;2.10;;;;;;;25.11;29.17;98268.72;4998742;28;20023;-44
2023/12/02 05:09:18;;;;;;;4.15;2.22;;;;;;;25.12;29.25;98272.22;4999905;28;20101;-43
2023/12/02 05:11:44;;;;;;;4.03;2.17;;;;;;;25.15;29.17;98279.47;4998291;28;20018;-43
2023/12/02 05:14:09;;;;;;;4.03;2.00;;;;;;;25.17;29.15;98269.38;4994775;28;20030;-42
2023/12/02 05:16:34;;;;;;;4.22;2.15;;;;;;;25.16;29.15;98276.16;4992062;28;20452;-43
2023/12/02 05:19:00;;;;;;;4.35;2.28;;;;;;;25.18;29.14;98281.16;5003567;28;20028;-43
2023/12/02 05:21:25;;;;;;;4.13;2.10;;;;;;;25.17;29.20;98287.97;4994366;28;20520;-43
2023/12/02 05:23:51;;;;;;;4.38;2.20;;;;;;;25.18;29.11;98292.22;4991699;28;20034;-42
2023/12/02 05:26:16;;;;;;;4.07;2.03;;;;;;;25.19;29.13;98299.19;4993210;28;20158;-42
2023/12/02 05:28:42;;;;;;;4.13;2.15;;;;;;;25.19;29.23;98299.19;4998374;28;20034;-42
2023/12/02 05:31:08;;;;;;;4.60;2.35;;;;;;;25.19;29.21;98310.25;4999420;28;20026;-42
2023/12/02 05:33:33;;;;;;;3.85;2.10;;;;;;;25.21;29.08;98318.75;4989091;28;20034;-43
2023/12/02 05:35:58;;;;;;;4.65;2.20;;;;;;;25.23;29.07;98318.97;4991200;28;20029;-43
2023/12/02 05:38:24;;;;;;;4.07;2.10;;;;;;;25.21;29.20;98321.50;4984084;28;20030;-43
2023/12/02 05:40:49;;;;;;;4.28;2.20;;;;;;;25.22;28.95;98331.28;4993883;28;20025;-43
2023/12/02 05:43:14;;;;;;;4.05;2.20;;;;;;;25.22;29.16;98334.06;5001661;28;20030;-43
2023/12/02 05:45:40;;;;;;;4.15;2.05;;;;;;;25.19;29.04;98346.88;4991642;28;20037;-44
2023/12/02 05:48:05;;;;;;;4.00;2.10;;;;;;;25.18;29.16;98350.19;4988605;28;20108;-42
2023/12/02 05:50:31;;;;;;;4.07;2.05;;;;;;;25.15;29.16;98349.22;4988896;28;20018;-42
2023/12/02 05:52:56;;;;;;;4.13;1.95;;;;;;;25.15;29.08;98354.75;4987808;28;20057;-43
2023/12/02 05:55:22;;;;;;;4.20;2.30;;;;;;;25.12;29.20;98360.56;4991161;28;20068;-42
2023/12/02 05:57:47;;;;;;;4.15;2.25;;;;;;;25.08;29.21;98365.66;4994303;28;20034;-42
2023/12/02 06:00:13;;;;;;;4.40;2.33;;;;;;;25.06;28.90;98364.16;4994838;28;20098;-43
2023/12/02 06:02:39;;;;;;;4.20;2.20;;;;;;;25.05;28.97;98367.44;4986233;28;20038;-43
2023/12/02 06:05:06;;;;;;;4.50;2.38;;;;;;;25.01;28.67;98372.50;4989172;28;20030;-43
2023/12/02 06:07:31;;;;;;;4.15;2.20;;;;;;;24.99;28.92;98375.06;4986195;28;20019;-42
2023/12/02 06:09:56;;;;;;;4.47;2.40;;;;;;;24.93;28.88;98377.13;4988458;28;20109;-43
2023/12/02 06:12:22;;;;;;;5.20;2.28;;;;;;;24.91;28.56;98383.19;4995745;28;20052;-43
2023/12/02 06:14:47;;;;;;;5.75;2.50;;;;;;;24.88;28.81;98392.50;4991173;28;20030;-43
2023/12/02 06:17:13;;;;;;;4.35;2.35;;;;;;;24.88;28.67;98389.75;4990458;28;20018;-44
2023/12/02 06:19:38;;;;;;;5.35;2.95;;;;;;;24.82;28.56;98400.09;4990544;28;20037;-44
2023/12/02 06:22:03;;;;;;;4.95;2.60;;;;;;;24.81;28.82;98398.59;4990402;28;20040;-43
2023/12/02 06:24:29;;;;;;;4.57;2.50;;;;;;;24.80;28.23;98397.13;4994558;28;20029;-44
2023/12/02 06:26:55;;;;;;;4.63;2.63;;;;;;;24.77;28.58;98403.69;4993124;28;20015;-44
2023/12/02 06:29:21;;;;;;;4.85;2.70;;;;;;;24.80;28.52;98402.63;4987234;28;20097;-43
2023/12/02 06:31:50;;;;;;;5.80;2.80;;;;;;;24.77;28.74;98398.19;4988743;28;20515;-43
2023/12/02 06:34:15;;;;;;;4.70;2.53;;;;;;;24.75;28.48;98402.72;4995667;28;20026;-42
2023/12/02 06:36:41;;;;;;;4.10;2.33;;;;;;;24.70;28.51;98407.78;4995584;28;20049;-42
2023/12/02 06:39:07;;;;;;;4.50;2.47;;;;;;;24.71;28.52;98411.28;4994243;28;20091;-43
2023/12/02 06:41:32;;;;;;;4.75;2.45;;;;;;;24.69;28.42;98419.34;4990926;28;20022;-42
2023/12/02 06:43:58;;;;;;;4.80;2.78;;;;;;;24.69;28.36;98414.56;4993627;28;20030;-44
2023/12/02 06:46:23;;;;;;;4.30;2.35;;;;;;;24.70;28.38;98420.84;4993043;28;20091;-43
2023/12/02 06:48:49;;;;;;;12.70;2.80;;;;;;;24.71;28.63;98430.59;4997725;28;20026;-43
2023/12/02 06:51:14;;;;;;;5.22;3.05;;;;;;;24.71;28.22;98439.63;4989045;28;20477;-43
2023/12/02 06:53:40;;;;;;;4.75;2.50;;;;;;;24.71;28.43;98438.88;4991692;28;20394;-44
2023/12/02 06:56:16;;;;;;;5.07;2.70;;;;;;;24.69;28.30;98446.94;4995046;28;20010;-43
2023/12/02 06:58:41;;;;;;;5.55;2.45;;;;;;;24.68;27.62;98442.69;4989058;28;20053;-42
2023/12/02 07:01:06;;;;;;;5.88;2.85;;;;;;;24.67;28.17;98454.97;4989526;28;20400;-42
2023/12/02 07:03:32;;;;;;;5.20;2.75;;;;;;;24.69;28.06;98457.97;4986164;28;20057;-46
2023/12/02 07:05:57;;;;;;;4.60;2.55;;;;;;;24.71;28.14;98461.72;4989074;28;20074;-43
2023/12/02 07:08:23;;;;;;;5.47;2.60;;;;;;;24.70;27.96;98471.25;4992094;28;20084;-42
2023/12/02 07:10:49;;;;;;;6.93;2.97;;;;;;;24.75;28.17;98468.97;4985371;28;20037;-42
2023/12/02 07:13:15;;;;;;;5.22;2.83;;;;;;;24.72;27.75;98476.25;5011370;28;20030;-43
2023/12/02 07:15:40;;;;;;;7.07;3.00;;;;;;;24.68;28.15;98467.50;4988679;28;20555;-40
2023/12/02 07:18:06;;;;;;;8.27;3.70;;;;;;;24.63;27.97;98482.13;4987913;28;20027;-43
2023/12/02 07:20:31;;;;;;;8.00;3.00;;;;;;;24.65;28.14;98474.81;4988172;28;20396;-41
2023/12/02 07:22:56;;;;;;;5.75;3.08;;;;;;;24.66;28.14;98481.84;4989235;28;20025;-43
2023/12/02 07:25:22;;;;;;;5.32;2.80;;;;;;;24.62;27.87;98484.13;4994034;28;20694;-41
2023/12/02 07:27:47;;;;;;;4.85;2.67;;;;;;;24.63;27.76;98495.91;4988746;28;20034;-41
2023/12/02 07:30:12;;;;;;;6.35;3.20;;;;;;;24.63;27.70;98504.19;4990716;28;20153;-42
2023/12/02 07:32:38;;;;;;;5.32;2.80;;;;;;;24.65;27.78;98516.19;4987283;28;20026;-42
2023/12/02 07:35:04;;;;;;;10.27;3.92;;;;;;;24.67;27.95;98515.69;4988638;28;20034;-47
2023/12/02 07:37:29;;;;;;;6.32;3.30;;;;;;;24.63;28.04;98518.72;4997028;28;20025;-41
2023/12/02 07:39:55;;;;;;;6.22;3.20;;;;;;;24.61;28.13;98524.00;4991441;28;20026;-41
2023/12/02 07:42:21;;;;;;;6.82;3.20;;;;;;;24.61;27.85;98523.28;4997902;28;20090;-43
2023/12/02 07:44:46;;;;;;;5.85;3.20;;;;;;;24.58;27.91;98522.28;4994685;28;20031;-43
2023/12/02 07:47:12;;;;;;;6.70;3.38;;;;;;;24.57;28.03;98522.84;4993941;28;20026;-46
2023/12/02 07:49:38;;;;;;;5.97;3.35;;;;;;;24.54;27.91;98521.84;4992973;28;20081;-43
2023/12/02 07:52:03;;;;;;;6.22;3.53;;;;;;;24.55;27.91;98519.84;4985337;28;20026;-40
2023/12/02 07:54:31;;;;;;;5.53;3.38;;;;;;;24.55;27.55;98534.38;4989178;28;20053;-41
2023/12/02 07:56:56;;;;;;;6.57;3.30;;;;;;;24.54;27.66;98535.66;4989578;28;20022;-42
2023/12/02 07:59:22;;;;;;;5.80;3.67;;;;;;;24.55;27.52;98536.38;4991921;28;20029;-42
2023/12/02 08:01:47;;;;;;;5.80;3.50;;;;;;;24.55;27.53;98541.91;4986070;28;20030;-41
2023/12/02 08:04:12;;;;;;;5.80;3.10;;;;;;;24.54;27.59;98549.44;4989501;28;20110;-43
2023/12/02 08:06:39;;;;;;;6.00;3.50;;;;;;;24.55;27.43;98550.19;4988797;28;20026;-43
2023/12/02 08:09:04;;;;;;;6.20;3.70;;;;;;;24.56;27.22;98554.44;4988549;28;20089;-42
2023/12/02 08:11:30;;;;;;;6.80;3.60;;;;;;;24.56;27.28;98549.66;4985900;28;20101;-45
2023/12/02 08:13:55;;;;;;;5.97;3.38;;;;;;;24.56;27.61;98565.47;4996913;28;20045;-42
2023/12/02 08:16:20;;;;;;;6.70;3.28;;;;;;;24.59;27.04;98573.44;4992708;28;20021;-42
2023/12/02 08:18:46;;;;;;;5.60;3.20;;;;;;;24.70;27.35;98580.88;4985991;28;20092;-44
2023/12/02 08:21:11;;;;;;;6.03;3.30;;;;;;;24.68;27.66;98575.88;4986498;28;20026;-45
2023/12/02 08:23:36;;;;;;;6.20;3.75;;;;;;;24.63;27.36;98579.44;4987725;28;20374;-43
2023/12/02 08:26:02;;;;;;;6.53;3.65;;;;;;;24.59;27.64;98584.47;4988751;28;20038;-45
2023/12/02 08:28:27;;;;;;;7.85;3.70;;;;;;;24.58;27.53;98590.53;4993057;28;20033;-44
2023/12/02 08:30:52;;;;;;;6.00;3.35;;;;;;;24.59;27.39;98589.25;4992378;28;20018;-44
2023/12/02 08:33:18;;;;;;;5.85;3.50;;;;;;;24.61;27.53;98590.22;4984154;28;20034;-46
2023/12/02 08:35:43;;;;;;;6.88;3.85;;;;;;;24.63;27.46;98598.75;4985310;28;20554;-43
2023/12/02 08:38:09;;;;;;;5.93;3.80;;;;;;;24.62;27.59;98602.00;4992623;28;20033;-46
2023/12/02 08:40:34;;;;;;;6.68;3.58;;;;;;;24.70;27.60;98619.50;4993169;28;20022;-44
2023/12/02 08:42:59;;;;;;;7.22;3.30;;;;;;;24.75;27.60;98620.72;4985367;28;20060;-44
2023/12/02 08:45:25;;;;;;;6.25;3.10;;;;;;;24.71;27.19;98629.28;4988386;28;20491;-47
2023/12/02 08:47:50;;;;;;;7.18;3.40;;;;;;;24.73;27.42;98616.47;4987259;28;20026;-44
2023/12/02 08:50:15;;;;;;;5.82;3.20;;;;;;;24.74;27.41;98625.50;4986977;28;20025;-43
2023/12/02 08:52:41;;;;;;;7.20;3.42;;;;;;;24.91;27.57;98631.59;4993229;28;20057;-40
2023/12/02 08:55:06;;;;;;;24.15;3.85;;;;;;;24.93;27.50;98629.06;4997138;28;20032;-40
2023/12/02 08:57:32;;;;;;;8.50;3.20;;;;;;;24.81;27.34;98630.44;4991757;28;20428;-41
2023/12/02 08:59:57;;;;;;;6.63;3.10;;;;;;;24.76;27.86;98638.78;4989826;28;20034;-41
2023/12/02 09:02:22;;;;;;;10.18;3.10;;;;;;;24.74;27.71;98647.56;4989335;28;20100;-40
2023/12/02 09:04:48;;;;;;;7.57;3.20;;;;;;;24.74;27.77;98658.63;4992773;28;20076;-41
2023/12/02 09:07:13;;;;;;;5.80;2.90;;;;;;;24.69;27.58;98654.63;4997387;28;20486;-43
2023/12/02 09:09:39;;;;;;;6.40;3.20;;;;;;;24.69;27.57;98667.69;4995991;28;20022;-41
2023/12/02 09:12:05;;;;;;;6.70;3.15;;;;;;;24.69;27.63;98673.94;4990911;28;20026;-40
2023/12/02 09:14:30;;;;;;;8.50;3.40;;;;;;;24.68;27.68;98671.69;4992485;28;20109;-40
2023/12/02 09:16:55;;;;;;;5.40;2.90;;;;;;;24.67;27.45;98667.44;4978474;28;20030;-43
2023/12/02 09:19:52;;;;;;;6.05;3.25;;;;;;;24.65;27.77;98675.47;4996964;28;20022;-42
2023/12/02 09:22:44;;;;;;;6.15;2.88;;;;;;;24.63;27.57;98680.78;4996417;28;20053;-42
2023/12/02 09:25:17;;;;;;;6.75;3.28;;;;;;;24.62;27.44;98690.31;4991412;28;20030;-43
2023/12/02 09:28:09;;;;;;;6.78;3.10;;;;;;;24.70;27.58;98699.53;4981721;28;20449;-41
2023/12/02 09:30:51;;;;;;;5.22;2.97;;;;;;;24.75;27.64;98707.03;4985568;28;20081;-40
2023/12/02 09:33:17;;;;;;;6.10;3.08;;;;;;;24.76;27.45;98710.53;4995942;28;20018;-41
2023/12/02 09:35:42;;;;;;;5.68;3.17;;;;;;;24.72;27.30;98725.34;4989797;28;20531;-43
2023/12/02 09:38:08;;;;;;;5.28;3.13;;;;;;;24.60;27.29;98720.41;4988162;28;20027;-40
2023/12/02 09:40:53;;;;;;;6.95;3.20;;;;;;;24.44;26.93;98729.56;4996711;28;20735;-40
2023/12/02 09:43:46;;;;;;;5.68;3.55;;;;;;;24.25;27.32;98730.19;4991115;28;20030;-42
2023/12/02 09:46:19;;;;;;;19.88;3.67;;;;;;;24.34;27.82;98740.91;4993368;28;20061;-43
2023/12/02 09:49:03;;;;;;;8.73;3.53;;;;;;;24.36;27.30;98746.69;4985530;28;20061;-42
2023/12/02 09:51:37;;;;;;;9.10;3.90;;;;;;;24.31;26.28;98746.69;4995717;28;20018;-42
2023/12/02 09:54:09;;;;;;;9.07;3.97;;;;;;;24.27;25.87;98743.47;4994186;28;20030;-43
2023/12/02 09:56:39;;;;;;;7.70;3.42;;;;;;;24.17;26.17;98751.28;4995277;28;20030;-42
2023/12/02 09:59:42;;;;;;;5.97;3.83;;;;;;;24.07;26.11;98752.81;4994696;28;20433;-42
2023/12/02 10:02:31;;;;;;;5.90;3.50;;;;;;;23.97;26.06;98751.63;4989111;28;20095;-41
2023/12/02 10:04:59;;;;;;;6.07;3.58;;;;;;;23.91;26.01;98748.88;4996923;28;20034;-43
2023/12/02 10:07:38;;;;;;;6.40;3.55;;;;;;;24.04;26.17;98749.06;4994598;28;20030;-41
2023/12/02 10:10:09;;;;;;;8.57;3.80;;;;;;;24.05;25.97;98747.81;4995535;28;20082;-41
2023/12/02 10:12:48;;;;;;;11.00;3.83;;;;;;;24.15;25.79;98744.75;4991219;28;20060;-41
2023/12/02 10:15:16;;;;;;;11.30;3.78;;;;;;;24.05;25.52;98752.56;4991232;28;20069;-41
2023/12/02 10:17:50;;;;;;;8.02;3.33;;;;;;;23.98;25.31;98744.84;4990183;28;20100;-41
2023/12/02 10:20:16;;;;;;;8.20;3.63;;;;;;;23.96;25.72;98758.38;4991577;28;20026;-41
2023/12/02 10:22:45;;;;;;;7.13;3.80;;;;;;;23.97;25.40;98755.13;4991715;28;20042;-42
2023/12/02 10:25:39;;;;;;;7.50;3.60;;;;;;;23.88;25.08;98758.16;4985899;28;20300;-41
2023/12/02 10:28:18;;;;;;;6.93;3.53;;;;;;;23.87;25.08;98767.69;4993646;28;20041;-41
2023/12/02 10:30:46;;;;;;;6.32;3.58;;;;;;;23.84;25.36;98767.94;4972723;28;20039;-41
2023/12/02 10:33:17;;;;;;;;;;;;;;;23.92;25.15;98768.91;5005381;28;20022;-42
2023/12/02 10:35:46;;;;;;;6.07;3.67;;;;;;;23.93;25.26;98770.41;4993458;28;19910;-41
2023/12/02 10:38:27;;;;;;;6.28;3.72;;;;;;;23.88;24.83;98774.69;4983846;28;20397;-42
2023/12/02 10:41:08;;;;;;;5.88;3.60;;;;;;;23.74;24.68;98786.00;4994361;28;20485;-42
2023/12/02 10:43:38;;;;;;;6.25;3.80;;;;;;;23.66;24.65;98797.53;4996569;28;20122;-42
2023/12/02 10:46:04;;;;;;;5.72;3.53;;;;;;;23.61;24.91;98792.78;4993069;28;20422;-42
2023/12/02 10:48:29;;;;;;;5.88;3.60;;;;;;;23.75;24.45;98804.06;4975590;28;20061;-41
2023/12/02 10:50:55;;;;;;;5.70;3.67;;;;;;;23.74;24.50;98800.53;4985241;28;20034;-42
2023/12/02 10:53:20;;;;;;;6.05;3.45;;;;;;;23.85;25.08;98808.00;4976238;28;20474;-42
2023/12/02 10:55:47;;;;;;;6.28;3.92;;;;;;;23.89;24.58;98803.00;4997081;28;20053;-43
2023/12/02 10:58:13;;;;;;;5.18;3.38;;;;;;;23.88;25.08;98810.50;4973196;28;20168;-43
2023/12/02 11:00:39;;;;;;;8.35;3.35;;;;;;;23.89;24.84;98814.03;4967004;28;20034;-43
2023/12/02 11:03:42;;;;;;;6.43;3.90;;;;;;;23.85;24.64;98811.53;4985453;28;20038;-44
2023/12/02 11:06:33;;;;;;;6.35;3.72;;;;;;;23.87;24.47;98819.28;4985721;28;20425;-44
2023/12/02 11:09:31;;;;;;;5.63;3.33;;;;;;;23.80;24.37;98822.56;4994566;28;20563;-43
2023/12/02 11:12:28;;;;;;;5.40;3.35;;;;;;;23.74;24.19;98833.59;4984256;28;20054;-43
2023/12/02 11:14:57;;;;;;;5.78;3.55;;;;;;;23.69;24.58;98837.88;4981991;28;20041;-43
2023/12/02 11:17:41;;;;;;;5.20;3.17;;;;;;;23.82;24.28;98831.06;4983823;28;20407;-43
2023/12/02 11:20:25;;;;;;;5.68;3.10;;;;;;;23.93;24.48;98831.81;4990814;28;20030;-43
2023/12/02 11:23:05;;;;;;;5.28;3.38;;;;;;;23.91;24.42;98837.06;4994323;28;20026;-43
2023/12/02 11:25:53;;;;;;;5.40;3.33;;;;;;;23.92;24.63;98840.56;4562805;28;10000901;-42
2023/12/02 11:28:24;;;;;;;5.10;3.20;;;;;;;23.93;24.48;98840.06;3951599;28;10000714;-43
2023/12/02 11:31:02;;;;;;;6.07;3.30;;;;;;;23.89;24.44;98855.38;4985227;28;20023;-44
2023/12/02 11:33:49;;;;;;;5.35;3.05;;;;;;;24.03;24.92;98851.56;4990600;28;20512;-46
2023/12/02 11:36:40;;;;;;;5.68;3.35;;;;;;;24.20;24.74;98855.00;4987913;28;20089;-44